aviador You're here:

CYTE Decoded Metar

CAPE DORSET in NU, CANADA
Report Time2017-09-26 03:00:00
UTC Time2017-09-26 03:53:07
Flight Rules mvfr MVFR
Wind290° at 11 kt
W.Decomp.*RWY 31: 10.9 kt HW 1.3 kt RCW
W.Rank290° ranks 5
Current wind is above 290° avg. (10.2)
Visibility9999 m
Phenomena:N/A
Clouds:Overcast 019 Hf
Expected CloudBase > 1,200 ft AGL from Temp-Dew spread
Ceiling1,900 ft
Temp-1°C (ISA -16)
Dew Point-4°C (80% RH)
AAT-7.5°C
QNH1015 hPa
Density Alt-1,775 ft
Elevation154 ft
Report Wrong Elevation
Raw Report
CYTE 260300Z AUTO 29011KT 9SM OVC019 M01/M04 A2998 RMK SLP157=

Extra information for CYTE:More info

Metar Taf Metar & Taf Last 4 Metars F.Rules Stats Wind Profile Meteogram Temp Stats Airport Information Weather charts Add Link Nearby VenuesMetar ALERT Operation Metar Decoded Social comments